createdAt,value
2019-01-21T00:02:19.299Z,13.60
2019-01-21T00:04:57.352Z,16.00
2019-01-21T00:07:25.716Z,12.98
2019-01-21T00:09:56.125Z,13.30
2019-01-21T00:12:26.570Z,14.67
2019-01-21T00:14:56.831Z,13.37
2019-01-21T00:17:27.580Z,12.57
2019-01-21T00:19:57.988Z,12.00
2019-01-21T00:22:28.437Z,12.37
2019-01-21T00:24:59.073Z,11.15
2019-01-21T00:27:29.881Z,12.53
2019-01-21T00:30:00.237Z,11.37
2019-01-21T00:32:30.564Z,11.40
2019-01-21T00:35:02.437Z,11.80
2019-01-21T00:37:32.715Z,11.33
2019-01-21T00:40:03.198Z,11.40
2019-01-21T00:42:33.550Z,12.20
2019-01-21T00:45:04.891Z,12.30
2019-01-21T00:47:35.519Z,11.73
2019-01-21T00:50:07.573Z,11.73
2019-01-21T00:52:38.080Z,12.93
2019-01-21T00:55:11.309Z,11.93
2019-01-21T00:57:41.656Z,10.63
2019-01-21T01:00:15.976Z,10.83
2019-01-21T01:02:46.495Z,13.80
2019-01-21T01:05:20.221Z,13.68
2019-01-21T01:07:50.579Z,13.83
2019-01-21T01:10:21.262Z,13.13
2019-01-21T01:12:51.626Z,13.17
2019-01-21T01:15:24.119Z,11.35
2019-01-21T01:17:54.460Z,13.23
2019-01-21T01:20:24.833Z,14.57
2019-01-21T01:22:55.143Z,13.63
2019-01-21T01:25:25.491Z,13.57
2019-01-21T01:27:56.192Z,12.67
2019-01-21T01:30:26.732Z,11.97
2019-01-21T01:32:58.710Z,12.45
2019-01-21T01:35:29.058Z,13.03
2019-01-21T01:38:02.788Z,12.80
2019-01-21T01:40:33.353Z,12.67
2019-01-21T01:43:04.234Z,13.28
2019-01-21T01:45:34.566Z,11.97
2019-01-21T01:48:06.018Z,14.27
2019-01-21T01:50:36.602Z,13.40
2019-01-21T01:53:07.501Z,13.13
2019-01-21T01:55:38.065Z,12.90
2019-01-21T01:58:08.493Z,15.38
2019-01-21T02:00:40.326Z,13.27
2019-01-21T02:03:10.980Z,13.13
2019-01-21T02:05:41.281Z,12.43
2019-01-21T02:08:12.894Z,13.78
2019-01-21T02:10:43.268Z,13.10
2019-01-21T02:13:14.831Z,13.80
2019-01-21T02:15:45.160Z,13.37
2019-01-21T02:18:15.789Z,15.07
2019-01-21T02:20:48.724Z,13.90
2019-01-21T02:23:22.480Z,13.70
2019-01-21T02:25:58.683Z,12.97
2019-01-21T02:28:53.518Z,11.88
2019-01-21T02:31:49.000Z,12.10
2019-01-21T02:34:28.805Z,11.87
2019-01-21T02:37:38.816Z,12.37
2019-01-21T02:40:27.688Z,12.37
2019-01-21T02:43:06.690Z,13.60
2019-01-21T02:46:06.899Z,13.63
2019-01-21T02:49:14.164Z,13.77
2019-01-21T02:52:17.412Z,12.20
2019-01-21T02:55:15.208Z,13.13
2019-01-21T02:58:21.201Z,12.23
2019-01-21T03:01:37.769Z,13.37
2019-01-21T03:04:49.679Z,11.70
2019-01-21T03:07:30.575Z,11.63
2019-01-21T03:10:22.484Z,13.80
2019-01-21T03:13:29.788Z,13.50
2019-01-21T03:16:24.426Z,12.13
2019-01-21T03:19:23.457Z,15.27
2019-01-21T03:22:25.180Z,16.33
2019-01-21T03:25:32.746Z,16.43
2019-01-21T03:28:53.196Z,16.03
2019-01-21T03:32:02.446Z,16.68
2019-01-21T03:34:56.878Z,15.65
2019-01-21T03:38:06.265Z,16.37
2019-01-21T03:40:48.377Z,14.58
2019-01-21T03:43:55.850Z,14.87
2019-01-21T03:47:15.286Z,13.87
2019-01-21T03:50:05.540Z,15.27
2019-01-21T03:53:14.593Z,15.43
2019-01-21T03:55:46.359Z,15.38
2019-01-21T03:58:36.113Z,14.60
2019-01-21T04:01:37.424Z,16.35
2019-01-21T04:04:50.774Z,15.27
2019-01-21T04:07:41.614Z,13.80
2019-01-21T04:10:38.538Z,14.50
2019-01-21T04:13:49.403Z,13.75
2019-01-21T04:16:52.367Z,16.30
2019-01-21T04:19:58.520Z,16.23
2019-01-21T04:23:01.045Z,16.83
2019-01-21T04:26:10.496Z,16.90
2019-01-21T04:29:03.781Z,16.43
2019-01-21T04:32:18.255Z,16.10
2019-01-21T04:35:27.442Z,16.37
2019-01-21T04:38:32.200Z,15.40
2019-01-21T04:41:30.551Z,13.57
2019-01-21T04:44:42.010Z,13.90
2019-01-21T04:47:51.005Z,15.40
2019-01-21T04:50:56.951Z,13.90
2019-01-21T04:53:50.112Z,13.50
2019-01-21T04:57:07.379Z,14.47
2019-01-21T05:00:21.382Z,12.23
2019-01-21T05:03:28.846Z,13.03
2019-01-21T05:06:47.729Z,16.17
2019-01-21T05:09:36.033Z,16.67
2019-01-21T05:12:22.213Z,16.57
2019-01-21T05:15:40.976Z,16.23
2019-01-21T05:18:44.389Z,14.50
2019-01-21T05:22:03.779Z,15.90
2019-01-21T05:25:06.920Z,16.00
2019-01-21T05:28:06.596Z,16.40
2019-01-21T05:31:32.826Z,15.63
2019-01-21T05:34:39.800Z,16.90
2019-01-21T05:37:39.644Z,17.55
2019-01-21T05:40:57.291Z,18.20
2019-01-21T05:44:25.255Z,18.17
2019-01-21T05:47:35.813Z,17.10
2019-01-21T05:50:53.219Z,15.50
2019-01-21T05:54:05.477Z,15.87
2019-01-21T05:57:05.106Z,17.65
2019-01-21T06:00:03.621Z,17.50
2019-01-21T06:03:33.553Z,15.83
2019-01-21T06:06:47.270Z,15.40
2019-01-21T06:09:54.251Z,16.13
2019-01-21T06:13:01.925Z,16.20
2019-01-21T06:16:04.154Z,16.27
2019-01-21T06:19:27.751Z,17.23
2019-01-21T06:22:35.065Z,16.50
2019-01-21T06:25:52.465Z,16.17
2019-01-21T06:28:58.885Z,16.77
2019-01-21T06:32:16.007Z,16.37
2019-01-21T06:35:21.582Z,15.97
2019-01-21T06:38:30.159Z,16.17
2019-01-21T06:41:40.460Z,18.00
2019-01-21T06:44:42.352Z,18.42
2019-01-21T06:47:56.024Z,16.12
2019-01-21T06:51:01.319Z,18.35
2019-01-21T06:54:05.164Z,15.57
2019-01-21T06:57:14.787Z,16.63
2019-01-21T07:00:26.722Z,16.52
2019-01-21T07:03:27.445Z,17.27
2019-01-21T07:06:39.100Z,16.03
2019-01-21T07:09:39.975Z,14.60
2019-01-21T07:12:33.106Z,16.53
2019-01-21T07:15:16.069Z,16.70
2019-01-21T07:18:36.608Z,15.70
2019-01-21T07:21:55.582Z,15.60
2019-01-21T07:25:08.447Z,16.07
2019-01-21T07:28:19.018Z,16.43
2019-01-21T07:31:25.331Z,15.77
2019-01-21T07:34:58.710Z,16.02
2019-01-21T07:37:58.165Z,14.80
2019-01-21T07:41:01.827Z,15.50
2019-01-21T07:44:06.535Z,16.10
2019-01-21T07:47:26.115Z,15.53
2019-01-21T07:50:21.820Z,15.47
2019-01-21T07:53:45.337Z,14.80
2019-01-21T07:57:03.380Z,15.56
2019-01-21T08:00:26.954Z,15.10
2019-01-21T08:03:40.096Z,14.63
2019-01-21T08:06:39.814Z,16.37
2019-01-21T08:09:43.023Z,15.70
2019-01-21T08:12:49.175Z,15.93
2019-01-21T08:15:55.857Z,15.77
2019-01-21T08:19:01.818Z,15.20
2019-01-21T08:22:25.618Z,15.20
2019-01-21T08:25:31.794Z,16.10
2019-01-21T08:28:32.392Z,16.03
2019-01-21T08:31:24.591Z,14.78
2019-01-21T08:34:34.666Z,15.56
2019-01-21T08:37:34.676Z,15.10
2019-01-21T08:40:41.074Z,17.55
2019-01-21T08:43:58.873Z,16.10
2019-01-21T08:46:57.337Z,16.23
2019-01-21T08:50:07.359Z,16.00
2019-01-21T08:53:03.458Z,16.70
2019-01-21T08:55:50.682Z,15.50
2019-01-21T08:59:03.231Z,16.62
2019-01-21T09:02:11.661Z,15.73
2019-01-21T09:05:08.816Z,14.17
2019-01-21T09:07:53.872Z,13.80
2019-01-21T09:10:44.237Z,13.43
2019-01-21T09:13:45.730Z,14.47
2019-01-21T09:16:58.172Z,13.63
2019-01-21T09:20:02.677Z,13.77
2019-01-21T09:22:47.103Z,13.83
2019-01-21T09:25:34.686Z,13.97
2019-01-21T09:29:04.322Z,14.47
2019-01-21T09:32:12.156Z,12.98
2019-01-21T09:35:15.888Z,14.68
2019-01-21T09:38:25.643Z,13.97
2019-01-21T09:41:35.609Z,12.78
2019-01-21T09:44:33.550Z,13.30
2019-01-21T09:47:02.659Z,14.65
2019-01-21T09:49:31.374Z,13.80
2019-01-21T09:52:18.255Z,13.80
2019-01-21T09:54:53.717Z,14.33
2019-01-21T09:57:28.171Z,14.37
2019-01-21T10:00:01.244Z,14.07
2019-01-21T10:02:43.441Z,15.13
2019-01-21T10:05:16.826Z,13.93
2019-01-21T10:08:23.347Z,13.37
2019-01-21T10:11:56.073Z,15.20
2019-01-21T10:15:06.561Z,14.25
2019-01-21T10:18:05.357Z,15.50
2019-01-21T10:20:46.980Z,16.02
2019-01-21T10:23:35.553Z,16.80
2019-01-21T10:26:48.311Z,16.17
2019-01-21T10:29:39.066Z,16.57
2019-01-21T10:32:59.860Z,16.77
2019-01-21T10:36:16.110Z,16.60
2019-01-21T10:39:15.412Z,18.60
2019-01-21T10:42:09.011Z,17.32
2019-01-21T10:45:32.316Z,17.42
2019-01-21T10:48:20.018Z,17.65
2019-01-21T10:51:26.965Z,18.95
2019-01-21T10:54:25.503Z,17.35
2019-01-21T10:57:07.599Z,19.07
2019-01-21T11:00:13.309Z,18.83
2019-01-21T11:03:14.198Z,18.77
2019-01-21T11:06:15.692Z,19.87
2019-01-21T11:08:53.390Z,18.73
2019-01-21T11:12:05.173Z,18.80
2019-01-21T11:15:24.784Z,19.00
2019-01-21T11:18:22.455Z,19.43
2019-01-21T11:21:29.971Z,18.63
2019-01-21T11:24:40.906Z,19.37
2019-01-21T11:27:56.157Z,19.27
2019-01-21T11:31:25.577Z,20.07
2019-01-21T11:34:48.246Z,20.13
2019-01-21T11:37:47.400Z,20.20
2019-01-21T11:40:30.384Z,21.57
2019-01-21T11:43:37.851Z,18.13
2019-01-21T11:47:06.999Z,18.57
2019-01-21T11:50:14.258Z,19.20
2019-01-21T11:52:54.868Z,20.47
2019-01-21T11:55:56.044Z,20.13
2019-01-21T11:58:55.029Z,19.83
2019-01-21T12:01:58.380Z,21.17
2019-01-21T12:04:58.032Z,21.40
2019-01-21T12:08:02.849Z,22.47
2019-01-21T12:11:17.103Z,21.43
2019-01-21T12:14:24.327Z,21.57
2019-01-21T12:17:44.818Z,21.40
2019-01-21T12:20:47.188Z,20.97
2019-01-21T12:23:49.267Z,20.77
2019-01-21T12:27:00.528Z,20.75
2019-01-21T12:29:52.002Z,21.17
2019-01-21T12:33:05.984Z,23.20
2019-01-21T12:36:14.790Z,22.60
2019-01-21T12:39:30.532Z,20.93
2019-01-21T12:42:28.066Z,20.90
2019-01-21T12:45:34.173Z,21.07
2019-01-21T12:48:54.051Z,20.70
2019-01-21T12:52:12.372Z,20.43
2019-01-21T12:55:35.636Z,20.15
2019-01-21T12:58:48.816Z,19.63
2019-01-21T13:01:55.802Z,21.30
2019-01-21T13:04:53.366Z,20.17
2019-01-21T13:08:05.081Z,21.83
2019-01-21T13:11:06.949Z,21.20
2019-01-21T13:14:22.922Z,22.37
2019-01-21T13:17:14.533Z,22.47
2019-01-21T13:20:30.432Z,22.70
2019-01-21T13:24:02.142Z,20.00
2019-01-21T13:26:51.738Z,20.63
2019-01-21T13:29:46.590Z,20.57
2019-01-21T13:32:57.556Z,20.93
2019-01-21T13:36:08.356Z,23.15
2019-01-21T13:39:29.841Z,21.67
2019-01-21T13:42:35.828Z,20.83
2019-01-21T13:45:45.597Z,22.33
2019-01-21T13:48:36.917Z,22.27
2019-01-21T13:51:22.167Z,21.80
2019-01-21T13:54:18.907Z,21.63
2019-01-21T13:57:42.741Z,21.93
2019-01-21T14:00:46.046Z,21.77
2019-01-21T14:04:02.046Z,20.13
2019-01-21T14:07:09.352Z,19.95
2019-01-21T14:10:11.757Z,19.77
2019-01-21T14:13:07.391Z,20.45
2019-01-21T14:16:08.531Z,21.60
2019-01-21T14:19:07.661Z,19.93
2019-01-21T14:22:17.795Z,18.53
2019-01-21T14:25:36.761Z,20.03
2019-01-21T14:28:57.648Z,18.45
2019-01-21T14:32:04.275Z,17.27
2019-01-21T14:34:47.047Z,18.67
2019-01-21T14:37:38.223Z,17.95
2019-01-21T14:40:54.706Z,18.52
2019-01-21T14:43:52.341Z,17.05
2019-01-21T14:47:05.015Z,17.32
2019-01-21T14:50:28.578Z,17.37
2019-01-21T14:53:35.326Z,18.47
2019-01-21T14:56:19.303Z,18.10
2019-01-21T14:59:06.877Z,17.00
2019-01-21T15:02:06.733Z,17.32
2019-01-21T15:05:14.382Z,17.47
2019-01-21T15:08:30.608Z,17.80
2019-01-21T15:12:04.762Z,17.13
2019-01-21T15:15:09.912Z,16.15
2019-01-21T15:18:03.925Z,17.32
2019-01-21T15:21:05.946Z,19.27
2019-01-21T15:24:03.374Z,18.27
2019-01-21T15:26:50.904Z,17.73
2019-01-21T15:29:52.062Z,18.97
2019-01-21T15:33:01.989Z,16.73
2019-01-21T15:36:07.470Z,15.90
2019-01-21T15:39:22.187Z,15.93
2019-01-21T15:42:18.682Z,18.93
2019-01-21T15:45:20.507Z,18.13
2019-01-21T15:48:31.155Z,18.97
2019-01-21T15:51:37.493Z,20.73
2019-01-21T15:54:35.774Z,19.60
2019-01-21T15:57:17.313Z,20.30
2019-01-21T16:00:27.412Z,20.90
2019-01-21T16:03:23.949Z,20.27
2019-01-21T16:06:38.476Z,20.93
2019-01-21T16:09:17.514Z,20.23
2019-01-21T16:12:32.435Z,20.40
2019-01-21T16:15:35.616Z,21.40
2019-01-21T16:18:34.786Z,20.57
2019-01-21T16:21:40.747Z,21.13
2019-01-21T16:24:34.938Z,19.00
2019-01-21T16:27:14.766Z,19.98
2019-01-21T16:30:18.471Z,20.68
2019-01-21T16:33:45.517Z,20.83
2019-01-21T16:37:15.403Z,19.82
2019-01-21T16:40:18.435Z,19.53
2019-01-21T16:42:48.912Z,19.27
2019-01-21T16:45:19.628Z,19.23
2019-01-21T16:47:50.027Z,20.30
2019-01-21T16:50:22.242Z,21.37
2019-01-21T16:52:52.820Z,19.67
2019-01-21T16:55:25.046Z,20.43
2019-01-21T16:57:55.842Z,19.67
2019-01-21T17:00:26.722Z,19.37
2019-01-21T17:02:57.132Z,20.50
2019-01-21T17:05:27.535Z,20.35
2019-01-21T17:07:58.091Z,19.83
2019-01-21T17:10:28.481Z,21.00
2019-01-21T17:12:59.182Z,22.95
2019-01-21T17:15:31.480Z,22.02
2019-01-21T17:18:01.833Z,23.53
2019-01-21T17:20:34.944Z,23.22
2019-01-21T17:23:05.599Z,23.07
2019-01-21T17:25:37.275Z,24.90
2019-01-21T17:28:07.631Z,23.67
2019-01-21T17:30:40.561Z,22.62
2019-01-21T17:33:12.703Z,22.50
2019-01-21T17:35:44.694Z,25.20
2019-01-21T17:38:15.124Z,25.47
2019-01-21T17:40:48.790Z,25.65
2019-01-21T17:43:19.223Z,24.27
2019-01-21T17:45:50.035Z,24.17
2019-01-21T17:48:20.906Z,25.25
2019-01-21T17:50:53.318Z,22.67
2019-01-21T17:53:23.880Z,22.27
2019-01-21T17:55:56.806Z,23.50
2019-01-21T17:58:27.481Z,23.52
2019-01-21T18:00:58.051Z,25.83
2019-01-21T18:03:29.888Z,23.57
2019-01-21T18:06:00.670Z,24.80
2019-01-21T18:08:31.367Z,25.10
2019-01-21T18:11:04.472Z,23.23
2019-01-21T18:13:34.507Z,25.60
2019-01-21T18:16:05.314Z,24.97
2019-01-21T18:18:37.503Z,23.77
2019-01-21T18:21:08.015Z,23.50
2019-01-21T18:23:38.993Z,24.20
2019-01-21T18:26:09.877Z,26.23
2019-01-21T18:28:40.395Z,24.70
2019-01-21T18:31:16.526Z,23.00
2019-01-21T18:33:43.960Z,24.70
2019-01-21T18:36:15.502Z,26.43
2019-01-21T18:38:46.356Z,23.65
2019-01-21T18:41:16.747Z,25.57
2019-01-21T18:43:47.341Z,24.33
2019-01-21T18:46:18.098Z,24.23
2019-01-21T18:48:50.096Z,23.90
2019-01-21T18:51:20.701Z,22.30
2019-01-21T18:53:51.597Z,24.85
2019-01-21T18:56:22.448Z,23.87
2019-01-21T18:58:53.750Z,24.90
2019-01-21T19:01:27.653Z,25.80
2019-01-21T19:03:58.527Z,23.03
2019-01-21T19:06:30.186Z,24.10
2019-01-21T19:09:01.601Z,25.85
2019-01-21T19:11:33.625Z,25.70
2019-01-21T19:14:07.511Z,25.92
2019-01-21T19:16:38.175Z,24.13
2019-01-21T19:19:09.494Z,25.60
2019-01-21T19:21:50.021Z,23.87
2019-01-21T19:24:15.929Z,25.62
2019-01-21T19:26:46.264Z,26.03
2019-01-21T19:29:19.128Z,25.00
2019-01-21T19:31:49.849Z,24.73
2019-01-21T19:34:20.261Z,26.00
2019-01-21T19:36:51.263Z,27.13
2019-01-21T19:39:21.805Z,25.33
2019-01-21T19:41:52.241Z,26.43
2019-01-21T19:44:24.425Z,24.47
2019-01-21T19:46:55.312Z,26.60
2019-01-21T19:49:25.753Z,24.77
2019-01-21T19:52:00.215Z,27.37
2019-01-21T19:54:28.327Z,26.23
2019-01-21T19:56:58.684Z,24.05
2019-01-21T19:59:29.186Z,25.77
2019-01-21T20:01:59.760Z,27.27
2019-01-21T20:04:30.403Z,25.00
2019-01-21T20:07:02.768Z,24.90
2019-01-21T20:09:33.232Z,26.37
2019-01-21T20:12:04.396Z,26.77
2019-01-21T20:14:35.020Z,29.33
2019-01-21T20:17:06.846Z,29.55
2019-01-21T20:19:37.496Z,29.57
2019-01-21T20:22:09.209Z,29.48
2019-01-21T20:24:39.563Z,26.30
2019-01-21T20:27:10.492Z,27.50
2019-01-21T20:29:40.833Z,26.67
2019-01-21T20:32:13.329Z,28.10
2019-01-21T20:34:43.870Z,26.30
2019-01-21T20:37:14.373Z,27.60
2019-01-21T20:39:45.392Z,27.10
2019-01-21T20:42:16.036Z,27.63
2019-01-21T20:44:47.717Z,27.37
2019-01-21T20:47:18.171Z,27.07
2019-01-21T20:49:48.765Z,26.87
2019-01-21T20:52:19.389Z,27.37
2019-01-21T20:54:50.315Z,29.70
2019-01-21T20:57:22.008Z,26.67
2019-01-21T20:59:52.920Z,27.62
2019-01-21T21:02:23.319Z,29.67
2019-01-21T21:04:53.706Z,26.70
2019-01-21T21:07:24.289Z,29.53
2019-01-21T21:09:55.022Z,26.87
2019-01-21T21:12:25.948Z,26.77
2019-01-21T21:14:58.235Z,25.50
2019-01-21T21:17:28.849Z,27.73
2019-01-21T21:19:59.827Z,26.70
2019-01-21T21:22:30.391Z,25.37
2019-01-21T21:25:04.467Z,28.53
2019-01-21T21:27:36.214Z,29.10
2019-01-21T21:30:09.857Z,25.00
2019-01-21T21:32:40.326Z,25.53
2019-01-21T21:35:11.012Z,26.27
2019-01-21T21:37:43.700Z,27.23
2019-01-21T21:40:16.309Z,27.63
2019-01-21T21:42:47.038Z,25.97
2019-01-21T21:45:19.697Z,25.77
2019-01-21T21:47:50.666Z,26.50
2019-01-21T21:50:23.946Z,26.13
2019-01-21T21:52:54.645Z,25.17
2019-01-21T21:55:25.239Z,26.40
2019-01-21T21:57:55.814Z,26.45
2019-01-21T22:00:27.776Z,27.17
2019-01-21T22:02:58.115Z,26.33
2019-01-21T22:05:28.315Z,25.23
2019-01-21T22:07:58.691Z,25.23
2019-01-21T22:10:30.045Z,25.83
2019-01-21T22:13:01.745Z,24.55
2019-01-21T22:15:33.767Z,25.87
2019-01-21T22:18:04.814Z,23.00
2019-01-21T22:20:35.116Z,25.77
2019-01-21T22:23:05.856Z,23.60
2019-01-21T22:25:36.155Z,23.97
2019-01-21T22:28:10.882Z,25.02
2019-01-21T22:30:41.365Z,24.97
2019-01-21T22:33:13.385Z,23.45
2019-01-21T22:35:43.829Z,23.80
2019-01-21T22:38:14.251Z,22.30
2019-01-21T22:40:44.675Z,25.20
2019-01-21T22:43:15.163Z,21.83
2019-01-21T22:45:45.795Z,23.37
2019-01-21T22:48:16.329Z,22.53
2019-01-21T22:50:46.692Z,23.75
2019-01-21T22:53:19.242Z,22.43
2019-01-21T22:55:49.885Z,22.73
2019-01-21T22:58:20.542Z,23.37
2019-01-21T23:01:15.744Z,22.63
2019-01-21T23:03:48.626Z,21.57
2019-01-21T23:06:19.038Z,23.23
2019-01-21T23:08:51.101Z,21.35
2019-01-21T23:11:21.570Z,22.80
2019-01-21T23:13:53.784Z,23.70
2019-01-21T23:16:25.639Z,22.17
2019-01-21T23:18:56.287Z,23.32
2019-01-21T23:21:26.680Z,24.03
2019-01-21T23:23:57.298Z,23.47
2019-01-21T23:26:27.687Z,23.10
2019-01-21T23:29:00.715Z,24.00
2019-01-21T23:31:31.393Z,23.23
2019-01-21T23:34:01.770Z,22.83
2019-01-21T23:36:32.253Z,20.67
2019-01-21T23:39:05.494Z,24.20
2019-01-21T23:41:36.031Z,22.13
2019-01-21T23:44:06.325Z,23.13
2019-01-21T23:46:36.995Z,24.87
2019-01-21T23:49:07.332Z,23.43
2019-01-21T23:51:38.323Z,22.75
2019-01-21T23:54:08.688Z,21.73
2019-01-21T23:56:39.438Z,23.18
2019-01-21T23:59:09.799Z,24.20
